sensor_id;sensor_type;location;lat;lon;timestamp;P1;durP1;ratioP1;P2;durP2;ratioP2
60076;SDS011;45950;45.208;20.374;2023-01-01T00:00:57;82.15;;;51.55;;
60076;SDS011;45950;45.208;20.374;2023-01-01T00:03:24;89.80;;;55.25;;
60076;SDS011;45950;45.208;20.374;2023-01-01T00:05:53;89.38;;;56.28;;
60076;SDS011;45950;45.208;20.374;2023-01-01T00:08:26;85.68;;;53.15;;
60076;SDS011;45950;45.208;20.374;2023-01-01T00:10:53;122.68;;;71.95;;
60076;SDS011;45950;45.208;20.374;2023-01-01T00:13:21;88.95;;;54.17;;
60076;SDS011;45950;45.208;20.374;2023-01-01T00:15:54;95.47;;;57.38;;
60076;SDS011;45950;45.208;20.374;2023-01-01T00:18:24;95.90;;;58.47;;
60076;SDS011;45950;45.208;20.374;2023-01-01T00:20:53;87.35;;;53.33;;
60076;SDS011;45950;45.208;20.374;2023-01-01T00:23:27;82.55;;;51.65;;
60076;SDS011;45950;45.208;20.374;2023-01-01T00:25:56;85.28;;;51.67;;
60076;SDS011;45950;45.208;20.374;2023-01-01T00:28:22;93.63;;;54.67;;
60076;SDS011;45950;45.208;20.374;2023-01-01T00:30:49;94.28;;;55.08;;
60076;SDS011;45950;45.208;20.374;2023-01-01T00:33:16;91.65;;;51.22;;
60076;SDS011;45950;45.208;20.374;2023-01-01T00:35:43;85.97;;;50.38;;
60076;SDS011;45950;45.208;20.374;2023-01-01T00:38:11;94.80;;;53.75;;
60076;SDS011;45950;45.208;20.374;2023-01-01T00:40:38;89.35;;;55.42;;
60076;SDS011;45950;45.208;20.374;2023-01-01T00:43:06;82.40;;;51.17;;
60076;SDS011;45950;45.208;20.374;2023-01-01T00:48:22;90.50;;;51.70;;
60076;SDS011;45950;45.208;20.374;2023-01-01T00:50:49;87.10;;;55.03;;
60076;SDS011;45950;45.208;20.374;2023-01-01T00:56:20;85.35;;;53.58;;
60076;SDS011;45950;45.208;20.374;2023-01-01T00:58:47;81.03;;;50.60;;
60076;SDS011;45950;45.208;20.374;2023-01-01T01:01:14;83.43;;;49.92;;
60076;SDS011;45950;45.208;20.374;2023-01-01T01:03:41;83.95;;;49.20;;
60076;SDS011;45950;45.208;20.374;2023-01-01T01:06:09;78.53;;;47.42;;
60076;SDS011;45950;45.208;20.374;2023-01-01T01:11:41;85.20;;;49.63;;
60076;SDS011;45950;45.208;20.374;2023-01-01T01:14:10;87.10;;;53.25;;
60076;SDS011;45950;45.208;20.374;2023-01-01T01:16:37;86.97;;;52.45;;
60076;SDS011;45950;45.208;20.374;2023-01-01T01:19:04;83.75;;;50.63;;
60076;SDS011;45950;45.208;20.374;2023-01-01T01:21:32;84.38;;;54.13;;
60076;SDS011;45950;45.208;20.374;2023-01-01T01:23:59;80.78;;;48.58;;
60076;SDS011;45950;45.208;20.374;2023-01-01T01:26:27;83.95;;;49.92;;
60076;SDS011;45950;45.208;20.374;2023-01-01T01:28:55;88.22;;;54.50;;
60076;SDS011;45950;45.208;20.374;2023-01-01T01:31:23;82.60;;;50.90;;
60076;SDS011;45950;45.208;20.374;2023-01-01T01:33:50;93.35;;;54.35;;
60076;SDS011;45950;45.208;20.374;2023-01-01T01:36:17;86.05;;;53.38;;
60076;SDS011;45950;45.208;20.374;2023-01-01T01:38:43;82.80;;;51.92;;
60076;SDS011;45950;45.208;20.374;2023-01-01T01:41:10;92.07;;;59.60;;
60076;SDS011;45950;45.208;20.374;2023-01-01T01:46:28;88.18;;;54.92;;
60076;SDS011;45950;45.208;20.374;2023-01-01T01:48:56;87.20;;;51.30;;
60076;SDS011;45950;45.208;20.374;2023-01-01T01:51:25;82.03;;;50.72;;
60076;SDS011;45950;45.208;20.374;2023-01-01T01:53:53;80.28;;;48.88;;
60076;SDS011;45950;45.208;20.374;2023-01-01T01:56:22;79.53;;;49.90;;
60076;SDS011;45950;45.208;20.374;2023-01-01T01:58:51;77.43;;;49.00;;
60076;SDS011;45950;45.208;20.374;2023-01-01T02:01:18;86.43;;;52.45;;
60076;SDS011;45950;45.208;20.374;2023-01-01T02:03:46;85.43;;;52.53;;
60076;SDS011;45950;45.208;20.374;2023-01-01T02:06:14;101.57;;;61.10;;
60076;SDS011;45950;45.208;20.374;2023-01-01T02:08:41;107.82;;;59.45;;
60076;SDS011;45950;45.208;20.374;2023-01-01T02:11:08;106.70;;;63.65;;
60076;SDS011;45950;45.208;20.374;2023-01-01T02:13:34;109.22;;;63.90;;
60076;SDS011;45950;45.208;20.374;2023-01-01T02:16:02;109.75;;;64.50;;
60076;SDS011;45950;45.208;20.374;2023-01-01T02:18:32;111.68;;;68.65;;
60076;SDS011;45950;45.208;20.374;2023-01-01T02:21:03;186.20;;;109.95;;
60076;SDS011;45950;45.208;20.374;2023-01-01T02:23:41;175.23;;;108.97;;
60076;SDS011;45950;45.208;20.374;2023-01-01T02:26:16;134.60;;;81.88;;
60076;SDS011;45950;45.208;20.374;2023-01-01T02:28:56;110.20;;;66.57;;
60076;SDS011;45950;45.208;20.374;2023-01-01T02:31:25;94.72;;;57.50;;
60076;SDS011;45950;45.208;20.374;2023-01-01T02:33:54;87.35;;;55.90;;
60076;SDS011;45950;45.208;20.374;2023-01-01T02:36:22;83.22;;;51.08;;
60076;SDS011;45950;45.208;20.374;2023-01-01T02:38:50;90.10;;;52.50;;
60076;SDS011;45950;45.208;20.374;2023-01-01T02:41:18;91.60;;;58.05;;
60076;SDS011;45950;45.208;20.374;2023-01-01T02:43:46;89.97;;;57.58;;
60076;SDS011;45950;45.208;20.374;2023-01-01T02:46:14;87.13;;;53.63;;
60076;SDS011;45950;45.208;20.374;2023-01-01T02:51:28;86.03;;;53.42;;
60076;SDS011;45950;45.208;20.374;2023-01-01T02:53:58;87.07;;;54.78;;
60076;SDS011;45950;45.208;20.374;2023-01-01T02:56:30;77.18;;;49.28;;
60076;SDS011;45950;45.208;20.374;2023-01-01T02:59:00;80.13;;;49.88;;
60076;SDS011;45950;45.208;20.374;2023-01-01T03:01:51;82.70;;;51.28;;
60076;SDS011;45950;45.208;20.374;2023-01-01T03:04:21;88.93;;;53.97;;
60076;SDS011;45950;45.208;20.374;2023-01-01T03:06:51;85.38;;;52.78;;
60076;SDS011;45950;45.208;20.374;2023-01-01T03:09:21;86.28;;;55.00;;
60076;SDS011;45950;45.208;20.374;2023-01-01T03:11:50;86.30;;;53.33;;
60076;SDS011;45950;45.208;20.374;2023-01-01T03:14:23;86.20;;;51.97;;
60076;SDS011;45950;45.208;20.374;2023-01-01T03:16:54;82.72;;;51.88;;
60076;SDS011;45950;45.208;20.374;2023-01-01T03:19:24;83.55;;;51.70;;
60076;SDS011;45950;45.208;20.374;2023-01-01T03:21:53;88.13;;;51.35;;
60076;SDS011;45950;45.208;20.374;2023-01-01T03:24:22;83.05;;;51.47;;
60076;SDS011;45950;45.208;20.374;2023-01-01T03:26:51;79.53;;;49.20;;
60076;SDS011;45950;45.208;20.374;2023-01-01T03:29:19;76.63;;;48.83;;
60076;SDS011;45950;45.208;20.374;2023-01-01T03:31:47;84.03;;;51.70;;
60076;SDS011;45950;45.208;20.374;2023-01-01T03:34:20;83.57;;;52.50;;
60076;SDS011;45950;45.208;20.374;2023-01-01T03:36:47;79.13;;;48.63;;
60076;SDS011;45950;45.208;20.374;2023-01-01T03:39:17;73.25;;;46.00;;
60076;SDS011;45950;45.208;20.374;2023-01-01T03:41:46;78.00;;;48.40;;
60076;SDS011;45950;45.208;20.374;2023-01-01T03:44:15;74.72;;;47.38;;
60076;SDS011;45950;45.208;20.374;2023-01-01T03:46:43;82.28;;;49.50;;
60076;SDS011;45950;45.208;20.374;2023-01-01T03:49:10;91.03;;;54.83;;
60076;SDS011;45950;45.208;20.374;2023-01-01T03:54:24;83.72;;;48.33;;
60076;SDS011;45950;45.208;20.374;2023-01-01T03:56:54;77.93;;;48.45;;
60076;SDS011;45950;45.208;20.374;2023-01-01T03:59:26;75.50;;;46.15;;
60076;SDS011;45950;45.208;20.374;2023-01-01T04:01:55;77.80;;;47.97;;
60076;SDS011;45950;45.208;20.374;2023-01-01T04:04:22;79.72;;;48.80;;
60076;SDS011;45950;45.208;20.374;2023-01-01T04:06:51;74.70;;;45.85;;
60076;SDS011;45950;45.208;20.374;2023-01-01T04:09:20;75.45;;;45.38;;
60076;SDS011;45950;45.208;20.374;2023-01-01T04:11:50;90.72;;;52.97;;
60076;SDS011;45950;45.208;20.374;2023-01-01T04:14:29;84.88;;;47.85;;
60076;SDS011;45950;45.208;20.374;2023-01-01T04:16:56;75.28;;;45.15;;
60076;SDS011;45950;45.208;20.374;2023-01-01T04:19:22;86.75;;;51.38;;
60076;SDS011;45950;45.208;20.374;2023-01-01T04:21:49;73.15;;;45.88;;
60076;SDS011;45950;45.208;20.374;2023-01-01T04:24:16;67.85;;;41.00;;
60076;SDS011;45950;45.208;20.374;2023-01-01T04:26:43;73.28;;;43.90;;
60076;SDS011;45950;45.208;20.374;2023-01-01T04:29:11;69.82;;;42.10;;
60076;SDS011;45950;45.208;20.374;2023-01-01T04:31:38;60.75;;;38.65;;
60076;SDS011;45950;45.208;20.374;2023-01-01T04:34:05;71.00;;;44.03;;
60076;SDS011;45950;45.208;20.374;2023-01-01T04:36:50;74.00;;;44.22;;
60076;SDS011;45950;45.208;20.374;2023-01-01T04:39:17;73.63;;;45.28;;
60076;SDS011;45950;45.208;20.374;2023-01-01T04:41:45;74.78;;;41.75;;
60076;SDS011;45950;45.208;20.374;2023-01-01T04:44:13;71.03;;;42.20;;
60076;SDS011;45950;45.208;20.374;2023-01-01T04:46:40;69.55;;;42.92;;
60076;SDS011;45950;45.208;20.374;2023-01-01T04:49:08;69.68;;;43.80;;
60076;SDS011;45950;45.208;20.374;2023-01-01T04:51:35;142.13;;;75.75;;
60076;SDS011;45950;45.208;20.374;2023-01-01T04:54:01;82.18;;;49.17;;
60076;SDS011;45950;45.208;20.374;2023-01-01T04:56:28;85.30;;;50.45;;
60076;SDS011;45950;45.208;20.374;2023-01-01T04:58:54;79.72;;;47.97;;
60076;SDS011;45950;45.208;20.374;2023-01-01T05:01:24;77.88;;;47.72;;
60076;SDS011;45950;45.208;20.374;2023-01-01T05:03:51;73.60;;;46.97;;
60076;SDS011;45950;45.208;20.374;2023-01-01T05:06:18;72.47;;;46.08;;
60076;SDS011;45950;45.208;20.374;2023-01-01T05:08:46;79.97;;;49.03;;
60076;SDS011;45950;45.208;20.374;2023-01-01T05:11:13;75.03;;;44.20;;
60076;SDS011;45950;45.208;20.374;2023-01-01T05:13:41;69.97;;;44.63;;
60076;SDS011;45950;45.208;20.374;2023-01-01T05:16:08;77.40;;;45.35;;
60076;SDS011;45950;45.208;20.374;2023-01-01T05:18:36;67.50;;;43.85;;
60076;SDS011;45950;45.208;20.374;2023-01-01T05:21:04;75.80;;;47.08;;
60076;SDS011;45950;45.208;20.374;2023-01-01T05:23:31;92.70;;;53.88;;
60076;SDS011;45950;45.208;20.374;2023-01-01T05:25:58;73.65;;;44.72;;
60076;SDS011;45950;45.208;20.374;2023-01-01T05:28:25;72.30;;;43.25;;
60076;SDS011;45950;45.208;20.374;2023-01-01T05:30:52;67.25;;;42.28;;
60076;SDS011;45950;45.208;20.374;2023-01-01T05:33:19;77.53;;;44.60;;
60076;SDS011;45950;45.208;20.374;2023-01-01T05:35:52;67.72;;;41.50;;
60076;SDS011;45950;45.208;20.374;2023-01-01T05:38:37;74.68;;;45.03;;
60076;SDS011;45950;45.208;20.374;2023-01-01T05:41:07;71.35;;;44.60;;
60076;SDS011;45950;45.208;20.374;2023-01-01T05:43:34;74.20;;;44.92;;
60076;SDS011;45950;45.208;20.374;2023-01-01T05:46:02;75.03;;;46.10;;
60076;SDS011;45950;45.208;20.374;2023-01-01T05:48:29;79.63;;;48.75;;
60076;SDS011;45950;45.208;20.374;2023-01-01T05:51:01;68.15;;;45.13;;
60076;SDS011;45950;45.208;20.374;2023-01-01T05:53:39;121.75;;;61.75;;
60076;SDS011;45950;45.208;20.374;2023-01-01T05:56:05;91.45;;;51.90;;
60076;SDS011;45950;45.208;20.374;2023-01-01T05:58:33;81.95;;;49.28;;
60076;SDS011;45950;45.208;20.374;2023-01-01T06:03:51;206.63;;;109.72;;
60076;SDS011;45950;45.208;20.374;2023-01-01T06:06:21;109.32;;;60.13;;
60076;SDS011;45950;45.208;20.374;2023-01-01T06:08:54;101.15;;;54.55;;
60076;SDS011;45950;45.208;20.374;2023-01-01T06:11:21;84.97;;;49.25;;
60076;SDS011;45950;45.208;20.374;2023-01-01T06:13:50;76.82;;;44.55;;
60076;SDS011;45950;45.208;20.374;2023-01-01T06:16:17;69.30;;;43.28;;
60076;SDS011;45950;45.208;20.374;2023-01-01T06:18:43;69.38;;;41.72;;
60076;SDS011;45950;45.208;20.374;2023-01-01T06:21:11;75.15;;;45.83;;
60076;SDS011;45950;45.208;20.374;2023-01-01T06:23:40;77.95;;;46.92;;
60076;SDS011;45950;45.208;20.374;2023-01-01T06:26:07;70.93;;;45.08;;
60076;SDS011;45950;45.208;20.374;2023-01-01T06:28:35;69.70;;;42.78;;
60076;SDS011;45950;45.208;20.374;2023-01-01T06:31:02;79.53;;;49.17;;
60076;SDS011;45950;45.208;20.374;2023-01-01T06:33:29;69.30;;;44.10;;
60076;SDS011;45950;45.208;20.374;2023-01-01T06:35:56;73.85;;;45.45;;
60076;SDS011;45950;45.208;20.374;2023-01-01T06:38:23;69.25;;;42.22;;
60076;SDS011;45950;45.208;20.374;2023-01-01T06:40:58;70.72;;;42.55;;
60076;SDS011;45950;45.208;20.374;2023-01-01T06:43:25;66.88;;;41.20;;
60076;SDS011;45950;45.208;20.374;2023-01-01T06:46:02;75.53;;;45.05;;
60076;SDS011;45950;45.208;20.374;2023-01-01T06:48:30;70.55;;;43.63;;
60076;SDS011;45950;45.208;20.374;2023-01-01T06:50:57;67.70;;;42.83;;
60076;SDS011;45950;45.208;20.374;2023-01-01T06:53:24;68.93;;;43.13;;
60076;SDS011;45950;45.208;20.374;2023-01-01T06:55:51;71.20;;;42.78;;
60076;SDS011;45950;45.208;20.374;2023-01-01T07:01:26;70.57;;;42.30;;
60076;SDS011;45950;45.208;20.374;2023-01-01T07:03:55;74.97;;;45.83;;
60076;SDS011;45950;45.208;20.374;2023-01-01T07:06:22;72.53;;;44.85;;
60076;SDS011;45950;45.208;20.374;2023-01-01T07:08:49;77.50;;;47.05;;
60076;SDS011;45950;45.208;20.374;2023-01-01T07:11:16;81.70;;;48.80;;
60076;SDS011;45950;45.208;20.374;2023-01-01T07:13:43;78.78;;;48.03;;
60076;SDS011;45950;45.208;20.374;2023-01-01T07:16:09;73.53;;;45.45;;
60076;SDS011;45950;45.208;20.374;2023-01-01T07:18:37;75.53;;;47.22;;
60076;SDS011;45950;45.208;20.374;2023-01-01T07:21:04;68.25;;;42.13;;
60076;SDS011;45950;45.208;20.374;2023-01-01T07:23:32;69.20;;;43.25;;
60076;SDS011;45950;45.208;20.374;2023-01-01T07:25:59;72.85;;;43.65;;
60076;SDS011;45950;45.208;20.374;2023-01-01T07:28:26;66.88;;;40.95;;
60076;SDS011;45950;45.208;20.374;2023-01-01T07:30:53;70.68;;;44.00;;
60076;SDS011;45950;45.208;20.374;2023-01-01T07:33:20;76.47;;;45.17;;
60076;SDS011;45950;45.208;20.374;2023-01-01T07:35:49;71.97;;;43.92;;
60076;SDS011;45950;45.208;20.374;2023-01-01T07:38:15;62.25;;;39.75;;
60076;SDS011;45950;45.208;20.374;2023-01-01T07:40:42;67.25;;;41.58;;
60076;SDS011;45950;45.208;20.374;2023-01-01T07:43:09;66.90;;;41.47;;
60076;SDS011;45950;45.208;20.374;2023-01-01T07:45:36;74.10;;;43.83;;
60076;SDS011;45950;45.208;20.374;2023-01-01T07:48:06;70.50;;;43.65;;
60076;SDS011;45950;45.208;20.374;2023-01-01T07:50:33;65.50;;;42.70;;
60076;SDS011;45950;45.208;20.374;2023-01-01T07:53:02;64.43;;;41.30;;
60076;SDS011;45950;45.208;20.374;2023-01-01T07:55:29;69.75;;;42.08;;
60076;SDS011;45950;45.208;20.374;2023-01-01T07:57:56;63.67;;;41.50;;
60076;SDS011;45950;45.208;20.374;2023-01-01T08:00:23;71.03;;;43.50;;
60076;SDS011;45950;45.208;20.374;2023-01-01T08:02:50;72.90;;;44.00;;
60076;SDS011;45950;45.208;20.374;2023-01-01T08:08:04;71.40;;;42.80;;
60076;SDS011;45950;45.208;20.374;2023-01-01T08:10:31;76.00;;;47.63;;
60076;SDS011;45950;45.208;20.374;2023-01-01T08:15:50;68.93;;;39.80;;
60076;SDS011;45950;45.208;20.374;2023-01-01T08:18:17;80.25;;;50.92;;
60076;SDS011;45950;45.208;20.374;2023-01-01T08:20:43;78.30;;;48.53;;
60076;SDS011;45950;45.208;20.374;2023-01-01T08:23:11;64.35;;;41.25;;
60076;SDS011;45950;45.208;20.374;2023-01-01T08:25:38;69.60;;;42.03;;
60076;SDS011;45950;45.208;20.374;2023-01-01T08:28:04;71.95;;;43.67;;
60076;SDS011;45950;45.208;20.374;2023-01-01T08:33:34;68.82;;;44.03;;
60076;SDS011;45950;45.208;20.374;2023-01-01T08:36:01;66.07;;;43.63;;
60076;SDS011;45950;45.208;20.374;2023-01-01T08:38:29;76.07;;;47.50;;
60076;SDS011;45950;45.208;20.374;2023-01-01T08:43:53;72.60;;;45.47;;
60076;SDS011;45950;45.208;20.374;2023-01-01T08:46:20;64.07;;;40.50;;
60076;SDS011;45950;45.208;20.374;2023-01-01T08:51:50;54.85;;;37.60;;
60076;SDS011;45950;45.208;20.374;2023-01-01T08:54:18;56.75;;;38.08;;
60076;SDS011;45950;45.208;20.374;2023-01-01T08:56:45;55.95;;;36.88;;
60076;SDS011;45950;45.208;20.374;2023-01-01T08:59:11;54.13;;;35.53;;
60076;SDS011;45950;45.208;20.374;2023-01-01T09:01:38;55.40;;;34.17;;
60076;SDS011;45950;45.208;20.374;2023-01-01T09:04:05;52.55;;;35.60;;
60076;SDS011;45950;45.208;20.374;2023-01-01T09:06:36;55.25;;;36.33;;
60076;SDS011;45950;45.208;20.374;2023-01-01T09:09:03;46.78;;;32.75;;
60076;SDS011;45950;45.208;20.374;2023-01-01T09:11:31;54.30;;;35.95;;
60076;SDS011;45950;45.208;20.374;2023-01-01T09:13:58;53.28;;;35.22;;
60076;SDS011;45950;45.208;20.374;2023-01-01T09:16:25;50.30;;;33.22;;
60076;SDS011;45950;45.208;20.374;2023-01-01T09:18:51;52.08;;;35.53;;
60076;SDS011;45950;45.208;20.374;2023-01-01T09:21:18;58.20;;;40.13;;
60076;SDS011;45950;45.208;20.374;2023-01-01T09:23:45;52.22;;;33.63;;
60076;SDS011;45950;45.208;20.374;2023-01-01T09:26:12;51.60;;;33.83;;
60076;SDS011;45950;45.208;20.374;2023-01-01T09:28:40;48.05;;;32.38;;
60076;SDS011;45950;45.208;20.374;2023-01-01T09:31:07;52.40;;;34.65;;
60076;SDS011;45950;45.208;20.374;2023-01-01T09:33:34;53.03;;;34.22;;
60076;SDS011;45950;45.208;20.374;2023-01-01T09:36:12;49.65;;;34.35;;
60076;SDS011;45950;45.208;20.374;2023-01-01T09:38:39;51.65;;;32.10;;
60076;SDS011;45950;45.208;20.374;2023-01-01T09:41:08;53.42;;;36.40;;
60076;SDS011;45950;45.208;20.374;2023-01-01T09:43:38;46.05;;;30.88;;
60076;SDS011;45950;45.208;20.374;2023-01-01T09:46:09;45.28;;;31.08;;
60076;SDS011;45950;45.208;20.374;2023-01-01T09:48:38;44.08;;;31.60;;
60076;SDS011;45950;45.208;20.374;2023-01-01T09:51:10;47.38;;;33.28;;
60076;SDS011;45950;45.208;20.374;2023-01-01T09:53:39;47.47;;;33.45;;
60076;SDS011;45950;45.208;20.374;2023-01-01T09:56:10;56.47;;;37.33;;
60076;SDS011;45950;45.208;20.374;2023-01-01T09:58:39;55.75;;;37.85;;
60076;SDS011;45950;45.208;20.374;2023-01-01T10:01:08;50.70;;;34.58;;
60076;SDS011;45950;45.208;20.374;2023-01-01T10:03:39;55.88;;;36.65;;
60076;SDS011;45950;45.208;20.374;2023-01-01T10:06:12;57.08;;;38.15;;
60076;SDS011;45950;45.208;20.374;2023-01-01T10:08:44;65.00;;;44.15;;
60076;SDS011;45950;45.208;20.374;2023-01-01T10:11:16;58.22;;;40.53;;
60076;SDS011;45950;45.208;20.374;2023-01-01T10:13:46;52.30;;;38.00;;
60076;SDS011;45950;45.208;20.374;2023-01-01T10:16:14;47.75;;;32.78;;
60076;SDS011;45950;45.208;20.374;2023-01-01T10:18:46;46.72;;;32.97;;
60076;SDS011;45950;45.208;20.374;2023-01-01T10:21:15;44.00;;;30.25;;
60076;SDS011;45950;45.208;20.374;2023-01-01T10:26:41;47.33;;;32.13;;
60076;SDS011;45950;45.208;20.374;2023-01-01T10:29:11;50.65;;;32.35;;
60076;SDS011;45950;45.208;20.374;2023-01-01T10:31:40;42.08;;;28.45;;
60076;SDS011;45950;45.208;20.374;2023-01-01T10:34:12;41.90;;;29.60;;
60076;SDS011;45950;45.208;20.374;2023-01-01T10:36:41;42.63;;;30.98;;
60076;SDS011;45950;45.208;20.374;2023-01-01T10:39:08;40.78;;;28.25;;
60076;SDS011;45950;45.208;20.374;2023-01-01T10:41:39;39.75;;;29.55;;
60076;SDS011;45950;45.208;20.374;2023-01-01T10:44:25;39.75;;;27.60;;
60076;SDS011;45950;45.208;20.374;2023-01-01T10:49:38;39.47;;;27.98;;
60076;SDS011;45950;45.208;20.374;2023-01-01T10:52:20;40.22;;;29.65;;
60076;SDS011;45950;45.208;20.374;2023-01-01T10:54:51;38.15;;;27.60;;
60076;SDS011;45950;45.208;20.374;2023-01-01T10:57:28;39.35;;;25.90;;
60076;SDS011;45950;45.208;20.374;2023-01-01T11:00:08;37.05;;;26.15;;
60076;SDS011;45950;45.208;20.374;2023-01-01T12:19:27;32.88;;;23.98;;
60076;SDS011;45950;45.208;20.374;2023-01-01T12:21:56;37.78;;;26.38;;
60076;SDS011;45950;45.208;20.374;2023-01-01T12:24:24;36.42;;;25.60;;
60076;SDS011;45950;45.208;20.374;2023-01-01T12:26:56;35.03;;;24.88;;
60076;SDS011;45950;45.208;20.374;2023-01-01T12:29:33;34.15;;;23.08;;
60076;SDS011;45950;45.208;20.374;2023-01-01T12:32:04;31.65;;;22.80;;
60076;SDS011;45950;45.208;20.374;2023-01-01T12:34:33;30.73;;;21.35;;
60076;SDS011;45950;45.208;20.374;2023-01-01T12:37:03;31.67;;;24.08;;
60076;SDS011;45950;45.208;20.374;2023-01-01T12:42:19;32.15;;;21.58;;
60076;SDS011;45950;45.208;20.374;2023-01-01T12:44:52;28.95;;;21.23;;
60076;SDS011;45950;45.208;20.374;2023-01-01T12:47:28;32.60;;;24.20;;
60076;SDS011;45950;45.208;20.374;2023-01-01T12:50:03;35.15;;;24.70;;
60076;SDS011;45950;45.208;20.374;2023-01-01T12:52:34;29.80;;;21.48;;
60076;SDS011;45950;45.208;20.374;2023-01-01T12:57:54;32.67;;;23.88;;
60076;SDS011;45950;45.208;20.374;2023-01-01T13:00:21;34.05;;;24.15;;
60076;SDS011;45950;45.208;20.374;2023-01-01T13:02:49;29.30;;;20.25;;
60076;SDS011;45950;45.208;20.374;2023-01-01T13:05:17;22.85;;;17.67;;
60076;SDS011;45950;45.208;20.374;2023-01-01T13:07:46;23.75;;;18.25;;
60076;SDS011;45950;45.208;20.374;2023-01-01T13:10:17;26.98;;;18.92;;
60076;SDS011;45950;45.208;20.374;2023-01-01T13:12:44;25.35;;;18.33;;
60076;SDS011;45950;45.208;20.374;2023-01-01T13:18:05;27.83;;;20.70;;
60076;SDS011;45950;45.208;20.374;2023-01-01T13:20:34;33.00;;;21.10;;
60076;SDS011;45950;45.208;20.374;2023-01-01T13:23:01;26.02;;;19.55;;
60076;SDS011;45950;45.208;20.374;2023-01-01T13:25:34;26.35;;;18.95;;
60076;SDS011;45950;45.208;20.374;2023-01-01T13:28:01;27.05;;;20.17;;
60076;SDS011;45950;45.208;20.374;2023-01-01T13:30:49;25.58;;;17.88;;
60076;SDS011;45950;45.208;20.374;2023-01-01T13:33:17;27.65;;;20.00;;
60076;SDS011;45950;45.208;20.374;2023-01-01T13:38:46;34.72;;;24.88;;
60076;SDS011;45950;45.208;20.374;2023-01-01T13:41:27;56.47;;;36.27;;
60076;SDS011;45950;45.208;20.374;2023-01-01T13:43:54;32.28;;;23.58;;
60076;SDS011;45950;45.208;20.374;2023-01-01T13:46:41;30.23;;;21.88;;
60076;SDS011;45950;45.208;20.374;2023-01-01T13:49:17;28.13;;;20.77;;
60076;SDS011;45950;45.208;20.374;2023-01-01T13:51:55;26.00;;;20.10;;
60076;SDS011;45950;45.208;20.374;2023-01-01T13:57:13;33.83;;;25.42;;
60076;SDS011;45950;45.208;20.374;2023-01-01T13:59:50;34.22;;;24.83;;
60076;SDS011;45950;45.208;20.374;2023-01-01T14:02:21;34.35;;;23.88;;
60076;SDS011;45950;45.208;20.374;2023-01-01T14:04:49;28.98;;;21.55;;
60076;SDS011;45950;45.208;20.374;2023-01-01T14:10:14;35.13;;;24.77;;
60076;SDS011;45950;45.208;20.374;2023-01-01T14:12:43;40.95;;;28.27;;
60076;SDS011;45950;45.208;20.374;2023-01-01T14:15:15;46.08;;;29.98;;
60076;SDS011;45950;45.208;20.374;2023-01-01T14:17:42;39.38;;;28.15;;
60076;SDS011;45950;45.208;20.374;2023-01-01T14:20:12;40.83;;;28.65;;
60076;SDS011;45950;45.208;20.374;2023-01-01T14:22:41;43.63;;;29.17;;
60076;SDS011;45950;45.208;20.374;2023-01-01T14:25:12;44.97;;;30.88;;
60076;SDS011;45950;45.208;20.374;2023-01-01T14:27:39;44.03;;;29.35;;
60076;SDS011;45950;45.208;20.374;2023-01-01T14:30:13;45.60;;;32.50;;
60076;SDS011;45950;45.208;20.374;2023-01-01T14:32:40;43.72;;;29.42;;
60076;SDS011;45950;45.208;20.374;2023-01-01T14:35:11;42.15;;;29.45;;
60076;SDS011;45950;45.208;20.374;2023-01-01T14:40:42;42.10;;;31.02;;
60076;SDS011;45950;45.208;20.374;2023-01-01T14:43:09;39.70;;;28.65;;
60076;SDS011;45950;45.208;20.374;2023-01-01T14:45:40;37.72;;;27.75;;
60076;SDS011;45950;45.208;20.374;2023-01-01T14:48:10;43.58;;;29.40;;
60076;SDS011;45950;45.208;20.374;2023-01-01T14:50:42;39.55;;;28.17;;
60076;SDS011;45950;45.208;20.374;2023-01-01T14:53:12;44.47;;;30.40;;
60076;SDS011;45950;45.208;20.374;2023-01-01T14:58:39;42.05;;;30.92;;
60076;SDS011;45950;45.208;20.374;2023-01-01T15:48:33;110.88;;;65.47;;
60076;SDS011;45950;45.208;20.374;2023-01-01T15:56:38;84.68;;;52.92;;
60076;SDS011;45950;45.208;20.374;2023-01-01T15:59:06;95.85;;;55.88;;
60076;SDS011;45950;45.208;20.374;2023-01-01T16:01:39;90.57;;;57.55;;
60076;SDS011;45950;45.208;20.374;2023-01-01T16:04:09;86.18;;;55.35;;
60076;SDS011;45950;45.208;20.374;2023-01-01T16:06:41;82.20;;;50.58;;
60076;SDS011;45950;45.208;20.374;2023-01-01T16:09:09;89.40;;;61.97;;
60076;SDS011;45950;45.208;20.374;2023-01-01T16:11:36;76.35;;;50.08;;
60076;SDS011;45950;45.208;20.374;2023-01-01T16:14:03;71.07;;;47.88;;
60076;SDS011;45950;45.208;20.374;2023-01-01T16:16:30;71.95;;;48.42;;
60076;SDS011;45950;45.208;20.374;2023-01-01T16:18:57;65.95;;;46.20;;
60076;SDS011;45950;45.208;20.374;2023-01-01T16:21:26;76.53;;;48.97;;
60076;SDS011;45950;45.208;20.374;2023-01-01T16:23:53;65.07;;;48.13;;
60076;SDS011;45950;45.208;20.374;2023-01-01T16:26:20;69.90;;;48.15;;
60076;SDS011;45950;45.208;20.374;2023-01-01T16:28:48;73.47;;;49.85;;
60076;SDS011;45950;45.208;20.374;2023-01-01T16:34:18;69.18;;;49.97;;
60076;SDS011;45950;45.208;20.374;2023-01-01T16:36:46;67.25;;;47.45;;
60076;SDS011;45950;45.208;20.374;2023-01-01T16:39:13;75.50;;;50.42;;
60076;SDS011;45950;45.208;20.374;2023-01-01T16:41:40;74.88;;;48.83;;
60076;SDS011;45950;45.208;20.374;2023-01-01T16:44:08;83.88;;;55.28;;
60076;SDS011;45950;45.208;20.374;2023-01-01T16:46:37;71.70;;;50.00;;
60076;SDS011;45950;45.208;20.374;2023-01-01T16:49:04;69.22;;;45.75;;
60076;SDS011;45950;45.208;20.374;2023-01-01T16:51:32;70.22;;;48.47;;
60076;SDS011;45950;45.208;20.374;2023-01-01T16:54:00;77.90;;;52.63;;
60076;SDS011;45950;45.208;20.374;2023-01-01T16:56:27;72.50;;;47.00;;
60076;SDS011;45950;45.208;20.374;2023-01-01T16:58:54;74.07;;;49.42;;
60076;SDS011;45950;45.208;20.374;2023-01-01T17:01:21;72.82;;;47.05;;
60076;SDS011;45950;45.208;20.374;2023-01-01T17:03:53;78.55;;;47.83;;
60076;SDS011;45950;45.208;20.374;2023-01-01T17:06:20;67.43;;;44.55;;
60076;SDS011;45950;45.208;20.374;2023-01-01T17:08:48;58.30;;;40.80;;
60076;SDS011;45950;45.208;20.374;2023-01-01T17:11:17;67.50;;;45.53;;
60076;SDS011;45950;45.208;20.374;2023-01-01T17:16:47;63.17;;;40.67;;
60076;SDS011;45950;45.208;20.374;2023-01-01T17:19:15;65.43;;;44.95;;
60076;SDS011;45950;45.208;20.374;2023-01-01T17:21:42;62.92;;;43.10;;
60076;SDS011;45950;45.208;20.374;2023-01-01T17:24:10;61.75;;;42.85;;
60076;SDS011;45950;45.208;20.374;2023-01-01T17:27:16;67.40;;;46.00;;
60076;SDS011;45950;45.208;20.374;2023-01-01T17:29:43;76.82;;;49.00;;
60076;SDS011;45950;45.208;20.374;2023-01-01T17:32:09;79.22;;;50.15;;
60076;SDS011;45950;45.208;20.374;2023-01-01T17:34:37;80.43;;;51.25;;
60076;SDS011;45950;45.208;20.374;2023-01-01T17:39:41;61.72;;;41.72;;
60076;SDS011;45950;45.208;20.374;2023-01-01T17:42:13;72.80;;;47.20;;
60076;SDS011;45950;45.208;20.374;2023-01-01T17:47:37;64.32;;;40.20;;